This is the latest recevied weather packets stored in our database for station/object K1KOF. If no packets are shown the sender has not sent any weather packets the latest 1 day(s).
| Time | Temp. | Humidity | Pressure | Rain* | Wind** | Luminosity | Snow |
|---|---|---|---|---|---|---|---|
| 1777990695 | 21.67° C | 72% | 1027.7 hPa | 0 mm | 2.68 m/s, 264° | 514 W/m² | - |
| 1777990392 | 21.11° C | 75% | 1027.5 hPa | 0 mm | 0 m/s | 476 W/m² | - |
| 1777990088 | 21.11° C | 76% | 1027.3 hPa | 0 mm | 2.68 m/s, 203° | 533 W/m² | - |
| 1777989785 | 21.11° C | 76% | 1027.3 hPa | 0 mm | 0.89 m/s, 132° | 516 W/m² | - |
| 1777989482 | 21.11° C | 74% | 1027.4 hPa | 0 mm | 1.34 m/s, 135° | 547 W/m² | - |
| 1777989178 | 21.11° C | 76% | 1027.4 hPa | 0 mm | 2.68 m/s, 157° | 514 W/m² | - |
| 1777988874 | 20.56° C | 77% | 1027.3 hPa | 0 mm | 2.68 m/s, 248° | 539 W/m² | - |
| 1777988572 | 20° C | 78% | 1027.4 hPa | 0 mm | 0.89 m/s, 199° | 487 W/m² | - |
| 1777988268 | 20° C | 78% | 1027.4 hPa | 0 mm | 1.34 m/s, 263° | 444 W/m² | - |
| 1777987965 | 20° C | 79% | 1027.3 hPa | 0 mm | 1.34 m/s, 206° | 357 W/m² | - |
| 1777987660 | 20° C | 79% | 1027.4 hPa | 0 mm | 0.45 m/s, 74° | 325 W/m² | - |
| 1777987358 | 19.44° C | 80% | 1027.2 hPa | 0 mm | 0.45 m/s, 126° | 341 W/m² | - |
| 1777987055 | 19.44° C | 80% | 1027.2 hPa | 0 mm | 0.45 m/s, 157° | 339 W/m² | - |
| 1777986752 | 18.89° C | 81% | 1027.3 hPa | 0 mm | 1.34 m/s, 175° | 301 W/m² | - |
| 1777986450 | 18.33° C | 82% | 1027.3 hPa | 0 mm | 0.89 m/s, 195° | 261 W/m² | - |
| 1777986149 | 18.33° C | 82% | 1027.2 hPa | 0 mm | 1.34 m/s, 233° | 172 W/m² | - |
| 1777985845 | 18.33° C | 83% | 1027.1 hPa | 0 mm | 1.34 m/s, 207° | 243 W/m² | - |
| 1777985542 | 17.78° C | 84% | 1027.4 hPa | 0 mm | 2.24 m/s, 138° | 229 W/m² | - |
| 1777985239 | 17.78° C | 85% | 1027.5 hPa | 0 mm | 0 m/s | 280 W/m² | - |
| 1777984936 | 16.67° C | 87% | 1027.4 hPa | 0 mm | 0 m/s | 153 W/m² | - |
| 1777984631 | 16.11° C | 87% | 1027.4 hPa | 0 mm | 1.34 m/s, 180° | 46 W/m² | - |
| 1777984329 | 16.11° C | 88% | 1027.5 hPa | 0 mm | 0.89 m/s, 191° | 45 W/m² | - |
| 1777984025 | 16.11° C | 88% | 1027.4 hPa | 0 mm | 2.24 m/s, 189° | 43 W/m² | - |
| 1777983722 | 15.56° C | 89% | 1027.5 hPa | 0 mm | 4.02 m/s, 206° | 42 W/m² | - |
| 1777983419 | 15.56° C | 89% | 1027.4 hPa | 0 mm | 0 m/s | 40 W/m² | - |
* Rain latest hour (hover to see other rain measurements)
** Current wind speed in m/s (hover to see current wind gust speed)